• Join FlightAware (Why Join?)
  • Login
  • US Flag 
07:24PM EDT


 

Airport Tracker/Info


-or-


 

Live Flight TrackerFlight Track Log ✈ SWA499 ✈ 06-Oct-2013 ✈ KBWI - KMSY

Flight Track Log - Related Links

Times and Time Zones

All times are in EDT time to prevent confusion due to time zone crossing. See the SWA499 flight status page for this flight to view local times or setup timezone preferences in your user account.

Time Position Orientation Groundspeed Altitude Reporting Facility
EDT Latitude Longitude Course Direction KTS MPH feet Rate Location/Type
10:52AM 39.1333 -76.6500 237° Southwest 181 208 2,300  Level Potomac TRACON
10:53AM 39.1333 -76.7167 270° West 230 265 4,300 1,620 Climbing Potomac TRACON
10:54AM 39.1667 -76.8000 297° West 265 305 5,500 1,620 Climbing Potomac TRACON
10:54AM 39.2000 -76.8833 297° West 275 316 7,400 2,520 Climbing Potomac TRACON
10:55AM 39.2167 -76.9833 282° West 290 334 10,400 2,100 Climbing Potomac TRACON
10:56AM 39.2167 -77.1000 270° West 343 395 11,600 2,160 Climbing Potomac TRACON
10:57AM 38.8194 -77.3097 237° Southwest  Level Estimated
10:57AM 39.1333 -77.1667 212° Southwest 348 400 14,600  Level Potomac TRACON
10:58AM 39.0667 -77.2333 218° Southwest 355 409 17,400 2,460 Climbing Potomac TRACON
10:59AM 38.9833 -77.3167 218° Southwest 383 441 19,600 1,920 Climbing Potomac TRACON
11:01AM 38.8114 -77.4592 213° Southwest 418 481 23,000 1,200 Climbing Washington Center
11:02AM 38.7183 -77.5394 214° Southwest 406 467 23,100 1,140 Climbing Washington Center
11:03AM 38.6294 -77.6219 216° Southwest 401 461 25,300 1,980 Climbing Washington Center
11:04AM 38.5342 -77.7044 214° Southwest 407 468 27,100 1,500 Climbing Washington Center
11:05AM 38.4658 -77.8006 228° Southwest 407 468 28,400 1,500 Climbing Washington Center
11:06AM 38.3986 -77.9311 237° Southwest 422 486 30,100 1,860 Climbing Washington Center
11:07AM 38.3336 -78.0586 237° Southwest 434 499 32,200 1,620 Climbing Washington Center
11:08AM 38.2661 -78.1861 236° Southwest 439 505 33,400 1,320 Climbing Washington Center
11:09AM 38.1986 -78.3131 236° Southwest 439 505 34,900 1,620 Climbing Washington Center
11:10AM 38.1311 -78.4428 237° Southwest 439 505 36,600 1,620 Climbing Washington Center
11:11AM 38.0839 -78.5861 247° West 413 475 38,200 1,260 Climbing Washington Center
11:12AM 38.0386 -78.7239 247° West 413 475 39,200 840 Climbing Washington Center
11:13AM 37.9911 -78.8564 246° West 418 481 40,000 360 Climbing Washington Center
11:14AM 37.9503 -78.9783 247° West 418 481 40,000  Level Washington Center
11:15AM 37.9025 -79.1131 246° West 418 481 40,000  Level Washington Center
11:16AM 37.8403 -79.2417 239° Southwest 418 481 40,000  Level Washington Center
11:17AM 37.7736 -79.3778 238° Southwest 423 487 40,000  Level Washington Center
11:18AM 37.7153 -79.5061 240° Southwest 423 487 40,000  Level Washington Center
11:19AM 37.6553 -79.6158 235° Southwest 423 487 40,000  Level Washington Center
11:20AM 37.5881 -79.7511 238° Southwest 423 487 40,000  Level Washington Center
11:21AM 37.5317 -79.8711 239° Southwest 428 493 40,000  Level Washington Center
11:22AM 37.4642 -80.0033 237° Southwest 433 498 40,000  Level Washington Center
11:23AM 37.4011 -80.1278 237° Southwest 428 493 40,000  Level Washington Center
11:24AM 37.3403 -80.2497 238° Southwest 423 487 40,000  Level Washington Center
11:25AM 37.3011 -80.3236 236° Southwest 426 490 40,000  Level Atlanta Center
11:26AM 37.2458 -80.4306 237° Southwest 426 490 40,000  Level Atlanta Center
11:27AM 37.1828 -80.5558 238° Southwest 426 490 40,000  Level Atlanta Center
11:28AM 37.1217 -80.6758 237° Southwest 426 490 40,000  Level Atlanta Center
11:29AM 37.0603 -80.8006 238° Southwest 421 484 40,000  Level Atlanta Center
11:30AM 36.9928 -80.9281 236° Southwest 416 479 40,000  Level Atlanta Center
11:31AM 36.9331 -81.0472 238° Southwest 416 479 40,000  Level Atlanta Center
11:32AM 36.8714 -81.1664 237° Southwest 416 479 40,000  Level Atlanta Center
11:33AM 36.8156 -81.2747 237° Southwest 416 479 40,000  Level Atlanta Center
11:34AM 36.7556 -81.4011 239° Southwest 414 476 40,000  Level Atlanta Center
11:35AM 36.6936 -81.5222 237° Southwest 414 476 40,000  Level Atlanta Center
11:36AM 36.6272 -81.6433 236° Southwest 419 482 40,000  Level Atlanta Center
11:37AM 36.5647 -81.7617 237° Southwest 424 488 40,000  Level Atlanta Center
11:38AM 36.5044 -81.8847 239° Southwest 419 482 40,000  Level Atlanta Center
11:39AM 36.4397 -82.0000 235° Southwest 419 482 40,000  Level Atlanta Center
11:40AM 36.3831 -82.1072 237° Southwest 419 482 40,000  Level Atlanta Center
11:41AM 36.3203 -82.2247 236° Southwest 419 482 40,000  Level Atlanta Center
11:42AM 36.2572 -82.3444 237° Southwest 419 482 40,000  Level Atlanta Center
11:43AM 36.1942 -82.4589 236° Southwest 419 482 40,000  Level Atlanta Center
11:44AM 36.1331 -82.5758 237° Southwest 419 482 40,000  Level Atlanta Center
11:45AM 36.0717 -82.6900 236° Southwest 419 482 40,000  Level Atlanta Center
11:46AM 36.0083 -82.8067 236° Southwest 419 482 40,000  Level Atlanta Center
11:47AM 35.9447 -82.9231 236° Southwest 419 482 40,000  Level Atlanta Center
11:48AM 35.8831 -83.0392 237° Southwest 419 482 40,000  Level Atlanta Center
11:49AM 35.8194 -83.1553 236° Southwest 419 482 40,000  Level Atlanta Center
11:50AM 35.7536 -83.2814 237° Southwest 419 482 40,000  Level Atlanta Center
11:51AM 35.6917 -83.3969 237° Southwest 414 476 40,000  Level Atlanta Center
11:52AM 35.6294 -83.5100 236° Southwest 414 476 40,000  Level Atlanta Center
11:53AM 35.5778 -83.5969 234° Southwest 414 476 40,000  Level Atlanta Center
11:54AM 35.5114 -83.7225 237° Southwest 414 476 40,000  Level Atlanta Center
11:55AM 35.4489 -83.8322 235° Southwest 409 471 40,000  Level Atlanta Center
11:56AM 35.3864 -83.9469 236° Southwest 409 471 40,000  Level Atlanta Center
11:57AM 35.3239 -84.0567 235° Southwest 403 464 40,000  Level Atlanta Center
11:58AM 35.2614 -84.1686 236° Southwest 403 464 40,000  Level Atlanta Center
11:59AM 35.1964 -84.2828 235° Southwest 403 464 40,000  Level Atlanta Center
12:00PM 35.1336 -84.3944 236° Southwest 403 464 40,000  Level Atlanta Center
12:01PM 35.0706 -84.5083 236° Southwest 403 464 40,000  Level Atlanta Center
12:02PM 35.0075 -84.6194 235° Southwest 403 464 40,000  Level Atlanta Center
12:03PM 34.9444 -84.7256 234° Southwest 403 464 40,000  Level Atlanta Center
12:04PM 34.8833 -84.8364 236° Southwest 403 464 40,000  Level Atlanta Center
12:05PM 34.8219 -84.9447 235° Southwest 403 464 40,000  Level Atlanta Center
12:06PM 34.7586 -85.0525 234° Southwest 403 464 40,000  Level Atlanta Center
12:07PM 34.6992 -85.1606 236° Southwest 398 458 40,000  Level Atlanta Center
12:08PM 34.6356 -85.2658 234° Southwest 398 458 40,000  Level Atlanta Center
12:09PM 34.5719 -85.3708 234° Southwest 398 458 40,000  Level Atlanta Center
12:10PM 34.5058 -85.4756 233° Southwest 398 458 40,000  Level Atlanta Center
12:11PM 34.4419 -85.5803 234° Southwest 398 458 40,000  Level Atlanta Center
12:12PM 34.3758 -85.6972 236° Southwest 398 458 40,000  Level Atlanta Center
12:13PM 34.3075 -85.8067 233° Southwest 398 458 40,000  Level Atlanta Center
12:14PM 34.2392 -85.9058 230° Southwest 398 458 40,000  Level Atlanta Center
12:15PM 34.1731 -86.0122 233° Southwest 398 458 40,000  Level Atlanta Center
12:16PM 34.1086 -86.1161 233° Southwest 398 458 40,000  Level Atlanta Center
12:17PM 34.0442 -86.2225 234° Southwest 398 458 40,000  Level Atlanta Center
12:18PM 33.9775 -86.3258 232° Southwest 398 458 40,000  Level Atlanta Center
12:19PM 33.9108 -86.4342 233° Southwest 398 458 40,000  Level Atlanta Center
12:20PM 33.8442 -86.5375 232° Southwest 403 464 40,000  Level Atlanta Center
12:21PM 33.7772 -86.6431 233° Southwest 403 464 40,000  Level Atlanta Center
12:22PM 33.7122 -86.7483 233° Southwest 403 464 40,000  Level Atlanta Center
12:23PM 33.6475 -86.8511 233° Southwest 403 464 40,000  Level Atlanta Center
12:24PM 33.5822 -86.9561 233° Southwest 403 464 40,000  Level Atlanta Center
12:25PM 33.5172 -87.0561 232° Southwest 403 464 40,000  Level Atlanta Center
12:26PM 33.4500 -87.1583 232° Southwest 403 464 40,000  Level Atlanta Center
12:27PM 33.3847 -87.2631 233° Southwest 403 464 40,000  Level Atlanta Center
12:28PM 33.3214 -87.3650 233° Southwest 403 464 40,000  Level Atlanta Center
12:29PM 33.2139 -87.5342 233° Southwest 402 463 40,000  Level Memphis Center
12:30PM 33.1472 -87.6356 232° Southwest 402 463 40,000  Level Memphis Center
12:31PM 33.0786 -87.7392 232° Southwest 397 457 40,000  Level Memphis Center
12:32PM 33.0053 -87.8381 229° Southwest 397 457 40,000  Level Memphis Center
12:33PM 32.9422 -87.9214 228° Southwest 392 451 40,000  Level Memphis Center
12:34PM 32.8669 -88.0150 226° Southwest 392 451 40,000  Level Memphis Center
12:35PM 32.7956 -88.1108 228° Southwest 392 451 40,000  Level Memphis Center
12:36PM 32.7242 -88.2014 227° Southwest 392 451 40,000  Level Memphis Center
12:37PM 32.6506 -88.2922 226° Southwest 387 445 40,000  Level Memphis Center
12:38PM 32.5769 -88.3825 226° Southwest 387 445 40,000 -300 Level Memphis Center
12:39PM 32.5011 -88.4778 227° Southwest 387 445 39,400 -840 Descending Memphis Center
12:40PM 32.4253 -88.5706 226° Southwest 392 451 38,400 -1,260 Descending Memphis Center
12:41PM 32.3514 -88.6606 226° Southwest 392 451 36,900 -1,440 Descending Memphis Center
12:42PM 32.2733 -88.7578 226° Southwest 392 451 35,600 -960 Descending Memphis Center
12:43PM 32.1931 -88.8525 225° Southwest 399 459 35,000 -300 Descending Memphis Center
12:44PM 32.1150 -88.9494 226° Southwest 405 466 35,000  Level Memphis Center
12:45PM 32.0367 -89.0439 226° Southwest 405 466 35,000  Level Memphis Center
12:46PM 31.9603 -89.1406 227° Southwest 405 466 35,000 -420 Level Memphis Center
12:48PM 31.8556 -89.2639 225° Southwest 398 458 34,100 -1,620 Descending Houston Center
12:49PM 31.7786 -89.3578 226° Southwest 401 461 31,300 -2,040 Descending Houston Center
12:50PM 31.7000 -89.4481 224° Southwest 398 458 30,000 -660 Descending Houston Center
12:51PM 31.5833 -89.5275 210° Southwest 406 467 30,000  Level Houston Center
12:52PM 31.4875 -89.5903 209° Southwest 404 465 30,000  Level Houston Center
12:53PM 31.3889 -89.6531 209° Southwest 404 465 30,000 -780 Level Houston Center
12:54PM 31.2900 -89.7181 209° Southwest 409 471 28,500 -1,860 Descending Houston Center
12:55PM 31.1939 -89.7806 209° Southwest 398 458 26,200 -2,280 Descending Houston Center
12:56PM 31.1008 -89.8411 209° Southwest 386 444 23,900 -2,400 Descending Houston Center
12:57PM 30.9931 -89.9097 209° Southwest 371 427 21,300 -2,340 Descending Houston Center
12:58PM 30.9058 -89.9675 210° Southwest 365 420 19,100 -2,100 Descending Houston Center
12:59PM 30.8214 -90.0214 209° Southwest 351 404 17,000 -2,100 Descending Houston Center
12:59PM 30.7867 -90.0444 210° Southwest 349 402 16,200 -2,040 Descending Houston Center
01:00PM 30.7539 -90.0653 209° Southwest 346 398 15,500 -1,800 Descending Houston Center
01:00PM 30.7372 -90.0753 207° Southwest 345 397 15,000 -2,100 Descending Houston Center
01:01PM 30.6650 -90.1028 198° South 338 389 13,400 -1,980 Descending Houston Center
01:01PM 30.6478 -90.1014 176° South 339 390 13,000 -1,200 Descending Houston Center
01:02PM 30.5650 -90.1069 183° South 340 391 12,200 -1,080 Descending Houston Center
01:02PM 30.5539 -90.1081 185° South 339 390 11,900 -1,020 Descending Houston Center
01:03PM 30.4692 -90.1158 185° South 344 396 11,200 -1,080 Descending Houston Center
01:03PM 30.4408 -90.1161 180° South 341 392 10,800 -900 Descending Houston Center
01:04PM 30.3794 -90.1194 183° South 321 369 10,300 -900 Descending Houston Center
01:04PM 30.3550 -90.1219 185° South 322 371 9,900 -1,320 Descending Houston Center
01:05PM 30.2981 -90.1253 183° South 288 331 9,000 -1,560 Descending Houston Center
01:05PM 30.2742 -90.1269 183° South 300 345 8,300 -1,620 Descending Houston Center
01:06PM 30.2147 -90.1311 183° South 292 336 7,400 -1,380 Descending Houston Center
01:06PM 30.1936 -90.1336 186° South 294 338 6,900 -1,500 Descending Houston Center
01:07PM 30.1356 -90.1442 189° South 296 341 5,900 -1,500 Descending Houston Center
01:07PM 30.1142 -90.1461 184° South 292 336 5,400 -1,320 Descending Houston Center
01:08PM 30.0567 -90.1569 189° South 282 325 4,600 -1,260 Descending Houston Center
01:08PM 30.0375 -90.1594 186° South 286 329 4,100 -1,440 Descending Houston Center
01:09PM 29.9797 -90.1697 189° South 273 314 3,200 -1,500 Descending Houston Center
01:09PM 29.9458 -90.1744 187° South 281 323 2,600 -660 Descending Houston Center
01:10PM 29.9028 -90.1850 192° South 215 247 2,500 -720 Descending Houston Center
01:10PM 29.8939 -90.1997 235° Southwest 237 273 1,900 -1,020 Descending Houston Center
01:11PM 29.9003 -90.2331 282° West 144 166 1,500 -840 Descending Houston Center
01:11PM 29.9064 -90.2456 299° West 187 215 1,100 -540 Descending Houston Center
01:12PM 29.9242 -90.2631 320° Northwest 125 144 1,000 -300 Descending Houston Center
01:12PM 29.9361 -90.2681 340° North 153 176 800 -480 Descending Houston Center
01:13PM 29.9594 -90.2594 18° North 151 174 600 -420 Descending Houston Center
01:13PM 29.9775 -90.2558 10° North 145 167 400 -420 Descending Houston Center